Time;durP1;ratioP1;P1;durP2;ratioP2;P2;SDS_P1;SDS_P2;PMS_P1;PMS_P2;Temp;Humidity;BMP_temperature;BMP_pressure;BME280_temperature;BME280_humidity;BME280_pressure;Samples;Min_cycle;Max_cycle;Signal;HPM_P1;HPM_P2
2023/09/23 00:00:49;;;;;;;0.77;0.77;;;11.20;99.90;;;;;;5052472;28;20194;-62
2023/09/23 00:03:16;;;;;;;0.40;0.40;;;11.20;99.90;;;;;;5052177;28;20162;-62
2023/09/23 00:05:43;;;;;;;0.40;0.40;;;11.30;99.90;;;;;;5052013;28;20407;-62
2023/09/23 00:08:10;;;;;;;0.40;0.40;;;11.40;99.90;;;;;;5052557;28;20432;-62
2023/09/23 00:10:35;;;;;;;0.30;0.30;;;11.30;99.90;;;;;;5052301;28;20785;-62
2023/09/23 00:13:02;;;;;;;0.30;0.30;;;11.30;99.90;;;;;;5052234;28;20417;-62
2023/09/23 00:15:28;;;;;;;0.37;0.37;;;11.30;99.90;;;;;;5051962;28;20404;-62
2023/09/23 00:17:55;;;;;;;0.60;0.60;;;11.30;99.90;;;;;;5051915;28;20244;-62
2023/09/23 00:20:22;;;;;;;0.47;0.47;;;11.30;99.90;;;;;;5052327;28;20408;-63
2023/09/23 00:22:48;;;;;;;0.40;0.40;;;11.20;99.90;;;;;;5052102;28;20412;-62
2023/09/23 00:25:18;;;;;;;0.40;0.40;;;11.10;99.90;;;;;;5051294;28;20879;-62
2023/09/23 00:27:44;;;;;;;1.93;1.83;;;11.10;99.90;;;;;;5051754;28;20807;-62
2023/09/23 00:30:12;;;;;;;0.30;0.30;;;11.00;99.90;;;;;;5052016;28;20435;-62
2023/09/23 00:32:39;;;;;;;0.97;0.60;;;11.10;99.90;;;;;;5052312;28;20554;-62
2023/09/23 00:35:06;;;;;;;0.47;0.47;;;11.20;99.90;;;;;;5051833;28;20474;-62
2023/09/23 00:37:33;;;;;;;0.40;0.40;;;11.20;99.90;;;;;;5051600;28;20836;-62
2023/09/23 00:39:58;;;;;;;0.40;0.40;;;11.10;99.90;;;;;;5051953;28;20407;-62
2023/09/23 00:42:24;;;;;;;0.30;0.30;;;11.00;99.90;;;;;;5051785;28;20413;-62
2023/09/23 00:44:50;;;;;;;0.60;0.60;;;11.00;99.90;;;;;;5051606;28;20558;-62
2023/09/23 00:47:17;;;;;;;0.40;0.40;;;11.00;99.90;;;;;;5051590;28;20205;-62
2023/09/23 00:49:44;;;;;;;0.73;0.70;;;10.90;99.90;;;;;;5051810;28;20435;-62
2023/09/23 00:52:14;;;;;;;0.37;0.37;;;10.80;99.90;;;;;;5051617;28;20420;-62
2023/09/23 00:54:40;;;;;;;0.50;0.50;;;10.70;99.90;;;;;;5051637;28;20411;-62
2023/09/23 00:57:07;;;;;;;0.40;0.40;;;10.60;99.90;;;;;;5051013;28;20837;-62
2023/09/23 00:59:35;;;;;;;0.37;0.37;;;10.50;99.90;;;;;;5051561;28;20498;-62
2023/09/23 01:02:05;;;;;;;1.00;0.70;;;10.40;99.90;;;;;;5051716;28;20409;-63
2023/09/23 01:04:31;;;;;;;0.90;0.90;;;10.40;99.90;;;;;;5051405;28;20393;-62
2023/09/23 01:06:59;;;;;;;1.47;1.37;;;10.50;99.90;;;;;;5051247;28;20819;-62
2023/09/23 01:09:26;;;;;;;0.50;0.50;;;10.50;99.90;;;;;;5051481;28;20838;-62
2023/09/23 01:11:52;;;;;;;0.43;0.43;;;10.60;99.90;;;;;;5051903;28;20443;-62
2023/09/23 01:14:21;;;;;;;0.40;0.40;;;10.60;99.90;;;;;;5051242;28;20427;-62
2023/09/23 01:16:51;;;;;;;0.40;0.40;;;10.60;99.90;;;;;;5051142;28;20945;-62
2023/09/23 01:19:17;;;;;;;0.60;0.40;;;10.50;99.90;;;;;;5051387;28;20460;-62
2023/09/23 01:21:43;;;;;;;0.83;0.73;;;10.50;99.90;;;;;;5051431;28;20661;-62
2023/09/23 01:24:08;;;;;;;0.30;0.30;;;10.40;99.90;;;;;;5051342;28;20934;-61
2023/09/23 01:26:34;;;;;;;0.87;0.40;;;10.30;99.90;;;;;;5050871;28;20166;-62
2023/09/23 01:29:03;;;;;;;0.40;0.40;;;10.30;99.90;;;;;;5051397;28;20197;-62
2023/09/23 01:31:29;;;;;;;0.80;0.80;;;10.30;99.90;;;;;;5051264;28;20170;-63
2023/09/23 01:33:56;;;;;;;0.40;0.40;;;10.20;99.90;;;;;;5051248;28;20412;-62
2023/09/23 01:36:22;;;;;;;2.00;1.90;;;10.20;99.90;;;;;;5052362;28;20560;-62
2023/09/23 01:38:50;;;;;;;0.40;0.40;;;10.30;99.90;;;;;;5055053;28;20449;-62
2023/09/23 01:41:16;;;;;;;0.77;0.77;;;10.30;99.90;;;;;;5054885;28;20400;-62
2023/09/23 01:43:42;;;;;;;1.67;1.55;;;10.40;99.90;;;;;;5055132;28;20174;-62
2023/09/23 01:46:07;;;;;;;0.30;0.30;;;10.40;99.90;;;;;;5054684;28;20173;-62
2023/09/23 01:48:33;;;;;;;0.40;0.37;;;10.30;99.90;;;;;;5055230;28;20698;-62
2023/09/23 01:50:59;;;;;;;0.40;0.40;;;10.20;99.90;;;;;;5055024;28;20181;-62
2023/09/23 01:53:26;;;;;;;0.47;0.40;;;10.30;99.90;;;;;;5054898;28;20952;-62
2023/09/23 01:55:52;;;;;;;0.93;0.60;;;10.30;99.90;;;;;;5054399;28;20404;-62
2023/09/23 01:58:18;;;;;;;0.40;0.40;;;10.40;99.90;;;;;;5054633;28;20581;-62
2023/09/23 02:00:44;;;;;;;0.30;0.30;;;10.30;99.90;;;;;;5054833;28;20192;-62
2023/09/23 02:03:10;;;;;;;0.50;0.50;;;10.20;99.90;;;;;;5054752;28;20201;-62
2023/09/23 02:05:36;;;;;;;0.40;0.40;;;10.10;99.90;;;;;;5054326;28;20507;-62
2023/09/23 02:08:02;;;;;;;1.50;1.50;;;10.20;99.90;;;;;;5054536;28;20225;-62
2023/09/23 02:10:28;;;;;;;1.03;0.70;;;10.20;99.90;;;;;;5054519;28;20464;-62
2023/09/23 02:12:54;;;;;;;0.40;0.40;;;10.20;99.90;;;;;;5054504;28;20493;-62
2023/09/23 02:15:20;;;;;;;0.40;0.40;;;10.10;99.90;;;;;;5054471;28;20181;-62
2023/09/23 02:17:47;;;;;;;0.40;0.40;;;10.10;99.90;;;;;;5054163;28;20210;-62
2023/09/23 02:20:18;;;;;;;0.40;0.40;;;10.10;99.90;;;;;;5054442;28;20251;-62
2023/09/23 02:22:53;;;;;;;0.30;0.30;;;10.00;99.90;;;;;;5054381;28;20177;-62
2023/09/23 02:25:19;;;;;;;0.32;0.32;;;10.00;99.90;;;;;;5054302;28;20192;-62
2023/09/23 02:27:46;;;;;;;0.30;0.30;;;9.90;99.90;;;;;;5053976;28;20198;-62
2023/09/23 02:30:13;;;;;;;0.60;0.60;;;9.80;99.90;;;;;;5054339;28;20564;-62
2023/09/23 02:32:43;;;;;;;0.50;0.50;;;9.70;99.90;;;;;;5054278;28;20653;-62
2023/09/23 02:35:13;;;;;;;0.57;0.57;;;9.70;99.90;;;;;;5054150;28;20220;-62
2023/09/23 02:37:46;;;;;;;0.50;0.50;;;9.70;99.90;;;;;;5053724;28;20583;-62
2023/09/23 02:40:14;;;;;;;0.43;0.43;;;9.70;99.90;;;;;;5054057;28;20265;-62
2023/09/23 02:42:46;;;;;;;0.50;0.50;;;9.70;99.90;;;;;;5054038;28;20177;-62
2023/09/23 02:45:15;;;;;;;0.45;0.45;;;9.70;99.90;;;;;;5053830;28;20179;-63
2023/09/23 02:47:43;;;;;;;0.40;0.40;;;9.70;99.90;;;;;;5052827;28;20583;-62
2023/09/23 02:50:09;;;;;;;0.57;0.57;;;9.70;99.90;;;;;;5053807;28;20255;-62
2023/09/23 02:52:39;;;;;;;0.40;0.40;;;9.70;99.90;;;;;;5052787;28;20182;-62
2023/09/23 02:55:07;;;;;;;0.40;0.40;;;9.80;99.90;;;;;;5053841;28;20174;-62
2023/09/23 02:57:36;;;;;;;0.50;0.50;;;9.80;99.90;;;;;;5053206;28;20214;-62
2023/09/23 03:00:13;;;;;;;0.60;0.60;;;9.80;99.90;;;;;;5053742;28;20178;-62
2023/09/23 03:02:39;;;;;;;0.55;0.40;;;9.90;99.90;;;;;;5035866;28;20184;-62
2023/09/23 03:05:07;;;;;;;1.00;0.63;;;9.90;99.90;;;;;;5053450;28;20265;-62
2023/09/23 03:07:33;;;;;;;1.25;0.50;;;9.90;99.90;;;;;;5053174;28;20678;-62
2023/09/23 03:10:01;;;;;;;1.57;1.33;;;9.80;99.90;;;;;;5053438;28;20193;-62
2023/09/23 03:12:29;;;;;;;0.95;0.95;;;9.80;99.90;;;;;;5053535;28;20783;-63
2023/09/23 03:14:56;;;;;;;0.40;0.40;;;9.70;99.90;;;;;;5053371;28;20182;-61
2023/09/23 03:17:22;;;;;;;0.30;0.30;;;9.60;99.90;;;;;;5052839;28;20210;-62
2023/09/23 03:19:51;;;;;;;0.37;0.37;;;9.50;99.90;;;;;;5053474;28;20178;-63
2023/09/23 03:22:20;;;;;;;0.35;0.35;;;9.40;99.90;;;;;;5053228;28;20236;-62
2023/09/23 03:24:48;;;;;;;0.40;0.40;;;9.30;99.90;;;;;;5053199;28;20201;-62
2023/09/23 03:27:14;;;;;;;0.40;0.40;;;9.30;99.90;;;;;;5052884;28;20201;-62
2023/09/23 03:29:41;;;;;;;0.73;0.55;;;9.30;99.90;;;;;;5053155;28;20178;-62
2023/09/23 03:32:07;;;;;;;0.30;0.30;;;9.30;99.90;;;;;;5052950;28;20737;-62
2023/09/23 03:34:34;;;;;;;0.50;0.50;;;9.30;99.90;;;;;;5053052;28;20210;-62
2023/09/23 03:37:00;;;;;;;0.40;0.40;;;9.30;99.90;;;;;;5052531;28;20206;-63
2023/09/23 03:39:26;;;;;;;1.33;0.67;;;9.20;99.90;;;;;;5052996;28;20170;-62
2023/09/23 03:41:52;;;;;;;0.60;0.60;;;9.20;99.90;;;;;;5052939;28;20725;-62
2023/09/23 03:44:18;;;;;;;0.40;0.40;;;9.30;99.90;;;;;;5052811;28;20175;-62
2023/09/23 03:46:47;;;;;;;0.80;0.80;;;9.20;99.90;;;;;;5052444;28;20675;-62
2023/09/23 03:49:13;;;;;;;0.30;0.30;;;9.20;99.90;;;;;;5053040;28;20194;-62
2023/09/23 03:51:39;;;;;;;2.50;1.43;;;9.20;99.90;;;;;;5052655;28;20290;-62
2023/09/23 03:54:05;;;;;;;0.40;0.40;;;9.20;99.90;;;;;;5052541;28;20405;-62
2023/09/23 03:56:33;;;;;;;1.05;0.75;;;9.30;99.90;;;;;;5052330;28;20592;-62
2023/09/23 03:59:05;;;;;;;0.50;0.50;;;9.30;99.90;;;;;;5051633;28;20264;-62
2023/09/23 04:01:32;;;;;;;0.30;0.30;;;9.30;99.90;;;;;;5052305;28;20193;-63
2023/09/23 04:03:58;;;;;;;0.60;0.50;;;9.20;99.90;;;;;;5052535;28;20647;-62
2023/09/23 04:06:24;;;;;;;0.50;0.50;;;9.20;99.90;;;;;;5052203;28;20181;-62
2023/09/23 04:08:50;;;;;;;0.40;0.40;;;9.30;99.90;;;;;;5052342;28;20198;-62
2023/09/23 04:11:18;;;;;;;0.50;0.50;;;9.30;99.90;;;;;;5052445;28;20252;-62
2023/09/23 04:13:47;;;;;;;0.40;0.40;;;9.20;99.90;;;;;;5052186;28;20185;-62
2023/09/23 04:16:13;;;;;;;0.43;0.43;;;9.10;99.90;;;;;;5052129;28;20178;-62
2023/09/23 04:18:40;;;;;;;5.55;0.70;;;9.10;99.90;;;;;;5052064;28;20202;-62
2023/09/23 04:21:08;;;;;;;0.40;0.40;;;9.20;99.90;;;;;;5052279;28;20206;-62
2023/09/23 04:23:34;;;;;;;2.17;1.13;;;9.30;99.90;;;;;;5051974;28;20651;-62
2023/09/23 04:26:02;;;;;;;1.20;1.10;;;9.30;99.90;;;;;;5051653;28;20178;-62
2023/09/23 04:28:28;;;;;;;1.10;1.05;;;9.20;99.90;;;;;;5052165;28;20276;-62
2023/09/23 04:30:54;;;;;;;0.77;0.77;;;9.20;99.90;;;;;;5051988;28;20213;-62
2023/09/23 04:33:20;;;;;;;1.95;1.20;;;9.10;99.90;;;;;;5051883;28;20170;-62
2023/09/23 04:35:48;;;;;;;1.00;0.88;;;9.20;99.90;;;;;;5051580;28;20710;-62
2023/09/23 04:38:15;;;;;;;2.60;1.48;;;9.20;99.90;;;;;;5051599;28;20217;-61
2023/09/23 04:40:41;;;;;;;1.50;0.98;;;9.30;99.90;;;;;;5051789;28;20621;-62
2023/09/23 04:43:10;;;;;;;1.00;0.93;;;9.40;99.90;;;;;;5051807;28;20225;-62
2023/09/23 04:45:36;;;;;;;2.63;2.35;;;9.40;99.90;;;;;;5051683;28;20174;-62
2023/09/23 04:48:03;;;;;;;0.63;0.63;;;9.40;99.90;;;;;;5051615;28;20182;-62
2023/09/23 04:50:29;;;;;;;0.75;0.75;;;9.50;99.90;;;;;;5051784;28;20714;-62
2023/09/23 04:52:54;;;;;;;1.40;1.20;;;9.60;99.90;;;;;;5051625;28;20186;-62
2023/09/23 04:55:21;;;;;;;0.90;0.90;;;9.60;99.90;;;;;;5051514;28;20181;-62
2023/09/23 04:57:46;;;;;;;1.95;1.48;;;9.60;99.90;;;;;;5051172;28;20229;-62
2023/09/23 05:00:19;;;;;;;0.60;0.60;;;9.60;99.90;;;;;;5051604;28;20644;-62
2023/09/23 05:02:48;;;;;;;2.08;1.05;;;9.50;99.90;;;;;;5051682;28;20525;-62
2023/09/23 05:05:13;;;;;;;1.38;1.27;;;9.50;99.90;;;;;;5051411;28;20166;-62
2023/09/23 05:07:39;;;;;;;1.40;1.10;;;9.40;99.90;;;;;;5051163;28;20190;-62
2023/09/23 05:10:07;;;;;;;1.03;0.93;;;9.30;99.90;;;;;;5051405;28;20458;-62
2023/09/23 05:12:33;;;;;;;0.50;0.50;;;9.30;99.90;;;;;;5051307;28;20223;-62
2023/09/23 05:14:59;;;;;;;0.40;0.40;;;9.30;99.90;;;;;;5051422;28;20239;-62
2023/09/23 05:17:27;;;;;;;3.13;1.00;;;9.30;99.90;;;;;;5050914;28;20216;-62
2023/09/23 05:19:53;;;;;;;0.50;0.50;;;9.40;99.90;;;;;;5051363;28;20643;-62
2023/09/23 05:22:19;;;;;;;0.43;0.43;;;9.40;99.90;;;;;;5051263;28;20181;-62
2023/09/23 05:24:48;;;;;;;0.60;0.57;;;9.50;99.90;;;;;;5051496;28;20190;-62
2023/09/23 05:27:14;;;;;;;0.68;0.68;;;9.40;99.90;;;;;;5051160;28;20202;-62
2023/09/23 05:29:42;;;;;;;0.50;0.50;;;9.50;99.90;;;;;;5051423;28;20204;-62
2023/09/23 05:32:10;;;;;;;0.40;0.40;;;9.40;99.90;;;;;;5051286;28;20257;-62
2023/09/23 05:34:39;;;;;;;1.52;1.42;;;9.30;99.90;;;;;;5051281;28;20257;-62
2023/09/23 05:37:06;;;;;;;0.80;0.80;;;9.30;99.90;;;;;;5050706;28;20197;-61
2023/09/23 05:39:34;;;;;;;1.17;0.65;;;9.20;99.90;;;;;;5051412;28;20170;-62
2023/09/23 05:42:01;;;;;;;0.40;0.40;;;9.30;99.90;;;;;;5051337;28;20178;-62
2023/09/23 05:44:27;;;;;;;1.30;1.20;;;9.30;99.90;;;;;;5051208;28;20174;-62
2023/09/23 05:46:53;;;;;;;2.77;0.60;;;9.30;99.90;;;;;;5050784;28;20174;-62
2023/09/23 05:49:18;;;;;;;1.07;0.77;;;9.30;99.90;;;;;;5051124;28;20714;-61
2023/09/23 05:51:45;;;;;;;0.53;0.53;;;9.30;99.90;;;;;;5050810;28;20200;-62
2023/09/23 05:54:11;;;;;;;0.60;0.60;;;9.30;99.90;;;;;;5051154;28;20185;-62
2023/09/23 05:56:37;;;;;;;0.60;0.60;;;9.30;99.90;;;;;;5049967;28;20166;-62
2023/09/23 05:59:03;;;;;;;0.50;0.50;;;9.40;99.90;;;;;;5050648;28;20221;-60
2023/09/23 06:01:28;;;;;;;0.40;0.40;;;9.50;99.90;;;;;;5049844;28;20182;-60
2023/09/23 06:03:55;;;;;;;0.40;0.40;;;9.50;99.90;;;;;;5050214;28;20201;-61
2023/09/23 06:06:21;;;;;;;0.88;0.88;;;9.60;99.90;;;;;;5049812;28;20166;-61
2023/09/23 06:08:48;;;;;;;1.47;1.03;;;9.80;99.90;;;;;;5050523;28;20201;-61
2023/09/23 06:11:14;;;;;;;0.98;0.98;;;9.80;99.90;;;;;;5050803;28;20174;-61
2023/09/23 06:13:40;;;;;;;0.45;0.45;;;9.90;99.90;;;;;;5050690;28;20183;-61
2023/09/23 06:16:07;;;;;;;0.50;0.50;;;9.80;99.90;;;;;;5050754;28;20174;-61
2023/09/23 06:18:33;;;;;;;2.55;0.95;;;9.80;99.90;;;;;;5051172;28;20260;-61
2023/09/23 06:21:03;;;;;;;0.40;0.40;;;10.00;99.90;;;;;;5050848;28;20186;-60
2023/09/23 06:23:29;;;;;;;0.40;0.40;;;10.10;99.90;;;;;;5052257;28;20198;-61
2023/09/23 06:26:02;;;;;;;0.40;0.40;;;10.10;99.90;;;;;;5053963;28;20428;-61
2023/09/23 06:28:32;;;;;;;0.77;0.77;;;10.20;99.90;;;;;;5054456;28;20429;-61
2023/09/23 06:30:57;;;;;;;1.60;1.50;;;10.30;99.90;;;;;;5054441;28;20892;-61
2023/09/23 06:33:23;;;;;;;0.40;0.40;;;10.50;99.90;;;;;;5054261;28;20417;-61
2023/09/23 06:35:49;;;;;;;1.77;0.50;;;10.70;99.90;;;;;;5053911;28;20181;-61
2023/09/23 06:38:15;;;;;;;0.50;0.50;;;10.70;99.90;;;;;;5053573;28;20487;-61
2023/09/23 06:40:41;;;;;;;0.80;0.60;;;10.80;99.90;;;;;;5053933;28;20926;-61
2023/09/23 06:43:07;;;;;;;1.33;0.60;;;10.90;99.90;;;;;;5054154;28;20428;-61
2023/09/23 06:45:32;;;;;;;0.70;0.70;;;11.10;99.90;;;;;;5053886;28;20166;-61
2023/09/23 06:47:58;;;;;;;0.80;0.80;;;11.20;99.90;;;;;;5054243;28;20194;-61
2023/09/23 06:50:24;;;;;;;0.70;0.70;;;11.40;99.90;;;;;;5053556;28;20166;-62
2023/09/23 06:52:49;;;;;;;0.60;0.60;;;11.50;99.90;;;;;;5053388;28;20197;-61
2023/09/23 06:55:16;;;;;;;0.97;0.77;;;11.60;99.90;;;;;;5053976;28;20174;-61
2023/09/23 06:57:48;;;;;;;0.67;0.60;;;11.60;99.90;;;;;;5052554;28;20208;-60
2023/09/23 07:00:14;;;;;;;0.67;0.67;;;11.70;99.90;;;;;;5071905;28;20414;-61
2023/09/23 07:02:40;;;;;;;0.60;0.60;;;12.00;99.90;;;;;;5073665;28;20391;-61
2023/09/23 07:05:06;;;;;;;2.07;1.00;;;12.20;99.90;;;;;;5073604;28;20400;-60
2023/09/23 07:07:31;;;;;;;0.90;0.90;;;12.50;99.90;;;;;;5073102;28;20235;-61
2023/09/23 07:09:57;;;;;;;1.17;1.07;;;12.90;99.90;;;;;;5073482;28;20446;-61
2023/09/23 07:12:23;;;;;;;0.50;0.50;;;13.20;99.60;;;;;;5073591;28;20435;-61
2023/09/23 07:14:49;;;;;;;0.67;0.67;;;13.40;99.30;;;;;;5072816;28;20203;-61
2023/09/23 07:17:15;;;;;;;0.70;0.70;;;13.60;98.80;;;;;;5072658;28;20534;-61
2023/09/23 07:19:40;;;;;;;0.50;0.50;;;13.70;97.90;;;;;;5073455;28;20174;-61
2023/09/23 07:22:06;;;;;;;0.50;0.50;;;13.70;97.70;;;;;;5073084;28;20454;-61
2023/09/23 07:24:35;;;;;;;0.60;0.60;;;13.80;98.00;;;;;;5073241;28;20189;-61
2023/09/23 07:27:01;;;;;;;0.80;0.80;;;14.00;98.10;;;;;;5072794;28;20418;-61
2023/09/23 07:29:27;;;;;;;0.57;0.53;;;14.20;98.10;;;;;;5073079;28;20793;-61
2023/09/23 07:31:53;;;;;;;0.60;0.60;;;14.40;97.90;;;;;;5073179;28;20670;-61
2023/09/23 07:34:19;;;;;;;0.60;0.60;;;14.80;96.60;;;;;;5072627;28;20195;-61
2023/09/23 07:36:48;;;;;;;2.93;1.57;;;14.80;97.00;;;;;;5073079;28;20408;-60
2023/09/23 07:39:15;;;;;;;3.00;1.10;;;15.10;97.00;;;;;;5073207;28;20432;-61
2023/09/23 07:41:40;;;;;;;2.10;0.80;;;15.50;96.30;;;;;;5073075;28;20901;-60
2023/09/23 07:44:06;;;;;;;1.90;0.70;;;15.60;95.70;;;;;;5072799;28;20404;-60
2023/09/23 07:46:32;;;;;;;0.70;0.60;;;15.40;94.90;;;;;;5072453;28;20169;-59
2023/09/23 07:48:58;;;;;;;0.70;0.50;;;15.20;95.30;;;;;;5072775;28;20571;-60
2023/09/23 07:51:24;;;;;;;0.50;0.50;;;15.20;95.30;;;;;;5072678;28;20486;-60
2023/09/23 07:53:53;;;;;;;0.60;0.60;;;15.20;94.90;;;;;;5072642;28;20188;-59
2023/09/23 07:56:18;;;;;;;2.87;0.90;;;15.30;95.20;;;;;;5072310;28;20212;-60
2023/09/23 07:58:44;;;;;;;0.97;0.67;;;15.30;95.10;;;;;;5071884;28;20502;-64
2023/09/23 08:01:10;;;;;;;1.17;0.97;;;15.40;95.80;;;;;;5072361;28;20171;-59
2023/09/23 08:03:36;;;;;;;0.40;0.40;;;15.60;95.90;;;;;;5072403;28;20400;-60
2023/09/23 08:06:02;;;;;;;0.40;0.40;;;15.80;96.00;;;;;;5072281;28;20248;-60
2023/09/23 08:08:27;;;;;;;1.37;1.10;;;16.10;95.10;;;;;;5071972;28;20195;-60
2023/09/23 08:10:53;;;;;;;0.70;0.70;;;16.10;94.50;;;;;;5071794;28;20227;-59
2023/09/23 08:13:20;;;;;;;0.70;0.70;;;16.30;94.40;;;;;;5072011;28;20236;-60
2023/09/23 08:15:47;;;;;;;0.50;0.50;;;16.70;94.20;;;;;;5072020;28;20184;-59
2023/09/23 08:18:13;;;;;;;1.07;0.70;;;17.20;93.50;;;;;;5071356;28;20493;-60
2023/09/23 08:20:39;;;;;;;0.50;0.50;;;17.50;92.50;;;;;;5071708;28;20442;-57
2023/09/23 08:23:05;;;;;;;0.50;0.50;;;17.50;91.90;;;;;;5072216;28;20223;-59
2023/09/23 08:25:32;;;;;;;0.53;0.53;;;17.50;91.70;;;;;;5071342;28;20414;-60
2023/09/23 08:27:57;;;;;;;0.50;0.47;;;17.30;92.40;;;;;;5071463;28;20438;-60
2023/09/23 08:30:23;;;;;;;0.47;0.47;;;17.10;92.50;;;;;;5071795;28;20422;-63
2023/09/23 08:32:49;;;;;;;0.50;0.50;;;17.20;92.40;;;;;;5071342;28;20186;-60
2023/09/23 08:35:16;;;;;;;0.50;0.50;;;17.50;93.10;;;;;;5071674;28;20419;-60
2023/09/23 08:37:45;;;;;;;0.77;0.60;;;18.50;92.20;;;;;;5071421;28;20464;-59
2023/09/23 08:40:12;;;;;;;0.73;0.67;;;19.20;90.00;;;;;;5071518;28;20570;-60
2023/09/23 08:42:38;;;;;;;0.50;0.50;;;19.80;88.30;;;;;;5070832;28;20405;-60
2023/09/23 08:45:08;;;;;;;0.63;0.57;;;19.90;84.10;;;;;;5071572;28;20470;-60
2023/09/23 08:47:36;;;;;;;2.20;0.77;;;19.60;83.50;;;;;;5071060;28;20425;-60
2023/09/23 08:50:03;;;;;;;0.70;0.50;;;19.20;85.20;;;;;;5071689;28;20506;-60
2023/09/23 08:52:31;;;;;;;3.60;0.80;;;18.90;87.10;;;;;;5071620;28;20408;-60
2023/09/23 08:54:57;;;;;;;0.40;0.40;;;18.80;87.90;;;;;;5071645;28;20413;-59
2023/09/23 08:57:23;;;;;;;3.13;0.60;;;19.30;88.10;;;;;;5070912;28;21036;-60
2023/09/23 08:59:49;;;;;;;0.50;0.50;;;19.30;86.50;;;;;;5071241;28;20204;-60
2023/09/23 09:02:22;;;;;;;1.00;0.57;;;18.90;83.60;;;;;;5071874;28;20558;-60
2023/09/23 09:04:51;;;;;;;0.50;0.50;;;18.10;86.90;;;;;;5071461;28;20176;-60
2023/09/23 09:07:16;;;;;;;0.40;0.40;;;17.50;87.90;;;;;;5071089;28;20478;-60
2023/09/23 09:09:42;;;;;;;4.67;2.10;;;17.40;89.00;;;;;;5071550;28;20438;-60
2023/09/23 09:12:09;;;;;;;0.47;0.47;;;17.80;88.10;;;;;;5071600;28;20181;-60
2023/09/23 09:14:35;;;;;;;0.53;0.53;;;17.90;89.50;;;;;;5071433;28;20654;-60
2023/09/23 09:17:00;;;;;;;0.40;0.40;;;17.60;88.70;;;;;;5070892;28;20472;-59
2023/09/23 09:19:26;;;;;;;0.67;0.50;;;17.20;90.30;;;;;;5071420;28;20164;-59
2023/09/23 09:21:53;;;;;;;0.77;0.53;;;17.00;91.90;;;;;;5071348;28;20164;-60
2023/09/23 09:24:18;;;;;;;0.80;0.60;;;17.00;91.70;;;;;;5071570;28;20504;-60
2023/09/23 09:26:44;;;;;;;0.40;0.40;;;17.00;90.50;;;;;;5071115;28;20401;-60
2023/09/23 09:29:10;;;;;;;0.40;0.40;;;16.80;91.70;;;;;;5072211;28;20199;-60
2023/09/23 09:31:38;;;;;;;0.40;0.40;;;16.90;90.80;;;;;;5070619;28;20422;-60
2023/09/23 09:34:11;;;;;;;0.40;0.40;;;17.60;91.10;;;;;;5071371;28;20812;-60
2023/09/23 09:36:38;;;;;;;0.50;0.50;;;19.00;90.00;;;;;;5070928;28;20463;-60
2023/09/23 09:39:07;;;;;;;0.40;0.40;;;20.80;82.10;;;;;;5067670;28;20438;-60
2023/09/23 09:41:54;;;;;;;0.97;0.70;;;21.60;80.90;;;;;;5056489;28;20395;-60
2023/09/23 09:44:22;;;;;;;1.90;0.83;;;21.70;77.50;;;;;;5069826;28;20406;-60
2023/09/23 09:46:48;;;;;;;1.00;0.70;;;21.60;75.00;;;;;;5064440;28;20502;-60
2023/09/23 09:49:17;;;;;;;0.50;0.50;;;22.30;80.70;;;;;;5050862;28;20442;-60
2023/09/23 09:51:48;;;;;;;0.80;0.40;;;23.50;73.80;;;;;;5050986;28;20813;-61
2023/09/23 09:54:18;;;;;;;2.17;0.70;;;24.70;66.20;;;;;;5053476;28;20420;-60
2023/09/23 09:56:47;;;;;;;1.33;0.60;;;25.30;67.80;;;;;;5051266;28;20404;-61
2023/09/23 09:59:27;;;;;;;1.30;0.43;;;25.20;58.50;;;;;;5054522;28;20475;-60
2023/09/23 10:01:56;;;;;;;0.40;0.40;;;25.10;60.40;;;;;;5054758;28;20777;-60
2023/09/23 10:04:21;;;;;;;0.73;0.53;;;25.50;58.90;;;;;;5054822;28;20428;-61
2023/09/23 10:06:54;;;;;;;4.03;0.50;;;25.80;58.10;;;;;;5054406;28;20440;-60
2023/09/23 10:09:27;;;;;;;0.50;0.50;;;25.90;56.80;;;;;;5054625;28;20166;-60
2023/09/23 10:11:56;;;;;;;0.40;0.40;;;26.00;55.90;;;;;;5054328;28;20413;-60
2023/09/23 10:14:22;;;;;;;0.40;0.40;;;24.90;55.90;;;;;;5054459;28;20785;-60
2023/09/23 10:16:52;;;;;;;0.90;0.50;;;23.50;57.60;;;;;;5054227;28;20409;-60
2023/09/23 10:19:38;;;;;;;0.30;0.30;;;22.30;59.30;;;;;;5056878;28;20664;-60
2023/09/23 10:22:17;;;;;;;0.40;0.30;;;21.40;63.30;;;;;;5054489;28;20395;-60
2023/09/23 10:24:43;;;;;;;0.60;0.60;;;20.70;65.40;;;;;;5054330;28;20358;-60
2023/09/23 10:27:13;;;;;;;0.40;0.40;;;20.80;62.50;;;;;;5054099;28;20484;-60
2023/09/23 10:29:47;;;;;;;0.40;0.40;;;20.90;65.00;;;;;;5054141;28;20415;-59
2023/09/23 10:32:17;;;;;;;0.60;0.47;;;20.50;63.70;;;;;;5054112;28;20407;-60
2023/09/23 10:34:48;;;;;;;0.50;0.50;;;20.30;63.80;;;;;;5053885;28;20429;-60
2023/09/23 10:37:26;;;;;;;0.50;0.50;;;20.60;65.10;;;;;;5053840;28;20482;-59
2023/09/23 10:39:52;;;;;;;0.80;0.67;;;21.20;68.40;;;;;;5054246;28;20379;-60
2023/09/23 10:42:17;;;;;;;0.50;0.40;;;21.00;62.50;;;;;;5054061;28;20949;-60
2023/09/23 10:44:47;;;;;;;0.40;0.40;;;20.00;63.40;;;;;;5053784;28;20674;-60
2023/09/23 10:47:14;;;;;;;0.40;0.40;;;19.90;61.70;;;;;;5053460;28;20603;-59
2023/09/23 10:49:40;;;;;;;0.70;0.50;;;19.90;64.00;;;;;;5054943;28;20425;-60
2023/09/23 10:52:06;;;;;;;0.50;0.50;;;20.60;63.20;;;;;;5053793;28;20513;-60
2023/09/23 10:54:32;;;;;;;0.43;0.43;;;20.80;59.80;;;;;;5053964;28;20174;-60
2023/09/23 10:57:00;;;;;;;0.43;0.43;;;20.50;61.00;;;;;;5054983;28;20417;-60
2023/09/23 10:59:26;;;;;;;0.40;0.40;;;20.50;61.50;;;;;;5052868;28;20604;-60
2023/09/23 11:01:55;;;;;;;0.40;0.40;;;20.50;60.40;;;;;;5051481;28;20443;-61
2023/09/23 11:04:23;;;;;;;0.60;0.50;;;20.40;62.30;;;;;;5053575;28;20409;-61
2023/09/23 11:06:48;;;;;;;0.50;0.50;;;20.30;64.20;;;;;;5073304;28;20412;-61
2023/09/23 11:09:14;;;;;;;0.43;0.40;;;19.90;60.40;;;;;;5073120;28;20494;-60
2023/09/23 11:11:41;;;;;;;0.40;0.37;;;19.70;61.50;;;;;;5073584;28;20187;-60
2023/09/23 11:14:13;;;;;;;0.40;0.40;;;19.00;65.60;;;;;;5073437;28;20177;-60
2023/09/23 11:16:45;;;;;;;0.60;0.50;;;18.80;63.40;;;;;;5072913;28;20421;-60
2023/09/23 11:19:11;;;;;;;0.50;0.50;;;18.80;63.70;;;;;;5073366;28;20454;-58
2023/09/23 11:21:46;;;;;;;0.97;0.50;;;18.60;68.30;;;;;;5073343;28;20495;-60
2023/09/23 11:24:12;;;;;;;0.40;0.40;;;18.20;69.90;;;;;;5073323;28;20258;-60
2023/09/23 11:26:39;;;;;;;2.00;0.87;;;18.10;66.80;;;;;;5072932;28;20464;-60
2023/09/23 11:29:05;;;;;;;1.13;0.43;;;18.00;67.90;;;;;;5072887;28;20465;-61
2023/09/23 11:31:31;;;;;;;1.03;0.50;;;18.30;65.80;;;;;;5073089;28;20410;-60
2023/09/23 11:33:57;;;;;;;0.50;0.50;;;18.70;67.50;;;;;;5073202;28;20415;-60
2023/09/23 11:36:23;;;;;;;0.50;0.50;;;19.30;73.00;;;;;;5072701;28;20169;-60
2023/09/23 11:38:49;;;;;;;1.00;0.60;;;19.90;66.90;;;;;;5072730;28;20981;-61
2023/09/23 11:41:15;;;;;;;0.47;0.47;;;20.00;68.30;;;;;;5072968;28;20662;-60
2023/09/23 11:43:41;;;;;;;0.50;0.50;;;20.20;69.40;;;;;;5072733;28;20821;-60
2023/09/23 11:46:07;;;;;;;0.40;0.40;;;20.10;68.80;;;;;;5072408;28;20400;-60
2023/09/23 11:48:35;;;;;;;0.40;0.40;;;19.90;66.10;;;;;;5072567;28;20189;-59
2023/09/23 11:51:01;;;;;;;0.93;0.80;;;19.60;69.20;;;;;;5072792;28;20206;-61
2023/09/23 11:53:27;;;;;;;0.40;0.40;;;19.30;66.80;;;;;;5072490;28;20451;-60
2023/09/23 11:55:52;;;;;;;0.60;0.53;;;19.20;70.60;;;;;;5072335;28;20415;-60
2023/09/23 11:58:19;;;;;;;1.13;0.80;;;19.10;71.80;;;;;;5072084;28;20896;-60
2023/09/23 12:00:47;;;;;;;0.70;0.70;;;19.10;69.90;;;;;;5072686;28;20174;-60
2023/09/23 12:03:14;;;;;;;1.60;1.33;;;19.10;69.60;;;;;;5072636;28;20916;-61
2023/09/23 12:05:41;;;;;;;1.10;0.80;;;19.20;71.60;;;;;;5072236;28;20492;-60
2023/09/23 12:08:09;;;;;;;1.03;0.60;;;19.30;64.60;;;;;;5072249;28;20847;-60
2023/09/23 12:10:35;;;;;;;0.83;0.43;;;19.30;65.60;;;;;;5072226;28;20490;-60
2023/09/23 12:13:05;;;;;;;0.60;0.60;;;19.10;64.30;;;;;;5072729;28;20414;-60
2023/09/23 12:15:34;;;;;;;0.80;0.70;;;19.30;63.70;;;;;;5072301;28;20792;-61
2023/09/23 12:18:00;;;;;;;2.90;1.20;;;19.60;63.60;;;;;;5072055;28;20492;-60
2023/09/23 12:20:26;;;;;;;1.80;0.50;;;19.60;59.60;;;;;;5071014;28;20407;-60
2023/09/23 12:22:52;;;;;;;1.10;0.70;;;19.50;61.90;;;;;;5072069;28;20173;-60
2023/09/23 12:25:18;;;;;;;0.70;0.50;;;19.80;61.20;;;;;;5071854;28;20419;-60
2023/09/23 12:27:44;;;;;;;1.30;0.60;;;19.90;63.90;;;;;;5071922;28;20190;-60
2023/09/23 12:30:11;;;;;;;1.03;0.50;;;19.90;67.20;;;;;;5072136;28;20592;-61
2023/09/23 12:32:36;;;;;;;0.40;0.40;;;20.10;61.30;;;;;;5072021;28;20386;-61
2023/09/23 12:35:02;;;;;;;1.30;0.73;;;20.30;60.50;;;;;;5071944;28;20408;-60
2023/09/23 12:37:30;;;;;;;0.40;0.40;;;20.30;59.10;;;;;;5071585;28;21215;-60
2023/09/23 12:39:56;;;;;;;0.50;0.50;;;20.30;68.80;;;;;;5071663;28;20257;-59
2023/09/23 12:42:22;;;;;;;0.57;0.57;;;20.00;65.90;;;;;;5071771;28;20550;-60
2023/09/23 12:44:48;;;;;;;1.10;0.67;;;19.60;66.60;;;;;;5071698;28;20725;-61
2023/09/23 12:47:13;;;;;;;0.40;0.40;;;19.60;65.60;;;;;;5071368;28;20506;-60
2023/09/23 12:49:40;;;;;;;0.50;0.50;;;19.70;66.20;;;;;;5071707;28;20177;-60